Time;durP1;ratioP1;P1;durP2;ratioP2;P2;SDS_P1;SDS_P2;PMS_P1;PMS_P2;Temp;Humidity;BMP_temperature;BMP_pressure;BME280_temperature;BME280_humidity;BME280_pressure;Samples;Min_cycle;Max_cycle;Signal;HPM_P1;HPM_P2
2021/10/25 00:01:42;;;;;;;0.60;0.60;;;5.30;99.90;;;;;;5059268;28;20182;-79
2021/10/25 00:04:08;;;;;;;0.20;0.10;;;5.30;99.90;;;;;;5067098;28;20260;-79
2021/10/25 00:06:33;;;;;;;0.40;0.40;;;5.10;99.90;;;;;;5061051;28;20177;-79
2021/10/25 00:08:59;;;;;;;6.33;0.60;;;5.00;99.90;;;;;;5053453;28;20288;-80
2021/10/25 00:11:25;;;;;;;0.73;0.63;;;5.00;99.90;;;;;;5061230;28;20185;-79
2021/10/25 00:13:51;;;;;;;0.33;0.33;;;5.10;99.90;;;;;;5065098;28;20195;-79
2021/10/25 00:16:17;;;;;;;0.10;0.10;;;5.10;99.90;;;;;;5064938;28;20236;-79
2021/10/25 00:18:43;;;;;;;0.17;0.17;;;5.10;99.90;;;;;;5052921;28;20288;-80
2021/10/25 00:21:09;;;;;;;0.70;0.30;;;5.10;99.90;;;;;;5064194;28;20177;-79
2021/10/25 00:23:35;;;;;;;0.17;0.17;;;5.10;99.90;;;;;;5065089;28;20216;-79
2021/10/25 00:26:01;;;;;;;0.10;0.10;;;5.00;99.90;;;;;;5064019;28;20224;-79
2021/10/25 00:28:27;;;;;;;0.33;0.33;;;4.90;99.90;;;;;;5066860;28;20216;-79
2021/10/25 00:30:53;;;;;;;0.10;0.10;;;4.70;99.90;;;;;;5065669;28;20189;-79
2021/10/25 00:33:18;;;;;;;0.10;0.10;;;4.60;99.90;;;;;;5056700;28;20216;-80
2021/10/25 00:35:44;;;;;;;0.10;0.10;;;4.60;99.90;;;;;;5063377;28;20199;-80
2021/10/25 00:38:10;;;;;;;0.30;0.30;;;4.50;99.90;;;;;;5065544;28;20208;-79
2021/10/25 00:40:37;;;;;;;0.10;0.10;;;4.40;99.90;;;;;;5058236;28;20622;-80
2021/10/25 00:43:04;;;;;;;0.13;0.13;;;4.40;99.90;;;;;;5063843;28;20695;-79
2021/10/25 00:45:29;;;;;;;0.40;0.40;;;4.40;99.90;;;;;;5063578;28;20219;-79
2021/10/25 00:47:57;;;;;;;0.40;0.40;;;4.40;99.90;;;;;;5058512;28;20693;-80
2021/10/25 00:50:24;;;;;;;0.33;0.33;;;4.40;99.90;;;;;;5068323;28;20214;-79
2021/10/25 00:52:49;;;;;;;0.50;0.47;;;4.30;99.90;;;;;;5048628;28;20200;-79
2021/10/25 00:55:15;;;;;;;0.20;0.20;;;4.40;99.90;;;;;;5053845;28;20264;-79
2021/10/25 00:57:41;;;;;;;0.10;0.10;;;4.40;99.90;;;;;;5058584;28;20212;-80
2021/10/25 01:00:09;;;;;;;0.20;0.20;;;4.50;99.90;;;;;;5060129;28;20181;-79
2021/10/25 01:02:36;;;;;;;2.20;0.60;;;4.50;99.90;;;;;;5059242;28;20180;-80
2021/10/25 01:05:02;;;;;;;0.10;0.10;;;4.60;99.90;;;;;;5059874;28;20174;-79
2021/10/25 01:07:27;;;;;;;0.27;0.27;;;4.70;99.90;;;;;;5061040;28;20663;-79
2021/10/25 01:09:55;;;;;;;1.20;0.20;;;4.60;99.90;;;;;;5063143;28;20199;-79
2021/10/25 01:12:21;;;;;;;0.10;0.10;;;4.70;99.90;;;;;;5064626;28;20635;-79
2021/10/25 01:14:46;;;;;;;0.20;0.20;;;4.70;99.90;;;;;;5059713;28;20650;-79
2021/10/25 01:17:12;;;;;;;0.20;0.20;;;4.70;99.90;;;;;;5056505;28;20192;-79
2021/10/25 01:19:37;;;;;;;0.87;0.87;;;4.70;99.90;;;;;;5057623;28;20277;-79
2021/10/25 01:22:03;;;;;;;0.20;0.20;;;4.80;99.90;;;;;;5055254;28;20181;-79
2021/10/25 01:24:29;;;;;;;0.13;0.13;;;4.70;99.90;;;;;;5058046;28;20183;-79
2021/10/25 01:26:54;;;;;;;0.30;0.30;;;4.60;99.90;;;;;;5067854;28;20177;-79
2021/10/25 01:29:20;;;;;;;0.43;0.20;;;4.60;99.90;;;;;;5060887;28;20217;-79
2021/10/25 01:31:47;;;;;;;0.17;0.17;;;4.70;99.90;;;;;;5053911;28;21802;-79
2021/10/25 01:34:13;;;;;;;0.30;0.30;;;4.70;99.90;;;;;;5061006;28;20193;-79
2021/10/25 01:36:40;;;;;;;0.10;0.10;;;4.70;99.90;;;;;;5065126;28;20183;-80
2021/10/25 01:39:09;;;;;;;0.23;0.23;;;4.70;99.90;;;;;;5058982;28;20213;-79
2021/10/25 01:41:35;;;;;;;0.20;0.20;;;4.70;99.90;;;;;;5067792;28;20176;-80
2021/10/25 01:44:02;;;;;;;0.83;0.60;;;4.70;99.90;;;;;;5058280;28;20184;-80
2021/10/25 01:46:28;;;;;;;0.57;0.13;;;4.70;99.90;;;;;;5055019;28;20654;-79
2021/10/25 01:48:54;;;;;;;0.40;0.40;;;4.70;99.90;;;;;;5060467;28;20211;-79
2021/10/25 01:51:20;;;;;;;0.13;0.13;;;4.70;99.90;;;;;;5063272;28;20191;-79
2021/10/25 01:53:46;;;;;;;0.53;0.53;;;4.70;99.90;;;;;;5064453;28;20192;-79
2021/10/25 01:56:12;;;;;;;0.30;0.30;;;4.80;99.90;;;;;;5068773;28;20556;-79
2021/10/25 01:58:38;;;;;;;0.10;0.10;;;4.70;99.90;;;;;;5067184;28;20279;-79
2021/10/25 02:01:04;;;;;;;0.40;0.40;;;4.70;99.90;;;;;;5066982;28;20185;-78
2021/10/25 02:03:34;;;;;;;0.20;0.20;;;4.70;99.90;;;;;;5055203;28;20747;-79
2021/10/25 02:06:00;;;;;;;2.97;0.20;;;4.60;99.90;;;;;;5057911;28;20185;-80
2021/10/25 02:08:26;;;;;;;0.40;0.40;;;4.50;99.90;;;;;;5072311;28;20257;-78
2021/10/25 02:10:52;;;;;;;0.27;0.27;;;4.50;99.90;;;;;;5060774;28;20187;-79
2021/10/25 02:13:18;;;;;;;0.47;0.47;;;4.50;99.90;;;;;;5059674;28;20277;-79
2021/10/25 02:15:46;;;;;;;0.20;0.20;;;4.50;99.90;;;;;;5070444;28;20188;-79
2021/10/25 02:18:14;;;;;;;0.20;0.20;;;4.40;99.90;;;;;;5068688;28;20200;-78
2021/10/25 02:20:41;;;;;;;1.53;0.30;;;4.40;99.90;;;;;;5073292;28;20185;-79
2021/10/25 02:23:08;;;;;;;0.10;0.10;;;4.40;99.90;;;;;;5068898;28;20188;-79
2021/10/25 02:25:35;;;;;;;0.27;0.20;;;4.40;99.90;;;;;;5047778;28;20227;-80
2021/10/25 02:28:01;;;;;;;0.20;0.20;;;4.40;99.90;;;;;;5058111;28;20734;-79
2021/10/25 02:30:27;;;;;;;0.27;0.27;;;4.40;99.90;;;;;;5065766;28;20229;-80
2021/10/25 02:32:53;;;;;;;0.17;0.17;;;4.40;99.90;;;;;;5066796;28;20189;-80
2021/10/25 02:35:19;;;;;;;0.50;0.23;;;4.40;99.90;;;;;;5058570;28;20187;-79
2021/10/25 02:37:44;;;;;;;0.30;0.30;;;4.40;99.90;;;;;;5066256;28;20208;-79
2021/10/25 02:40:11;;;;;;;0.10;0.10;;;4.30;99.90;;;;;;5067410;28;20181;-79
2021/10/25 02:42:36;;;;;;;0.10;0.10;;;4.30;99.90;;;;;;5059837;28;20224;-79
2021/10/25 02:45:03;;;;;;;0.33;0.33;;;4.10;99.90;;;;;;5060937;28;20170;-79
2021/10/25 02:47:28;;;;;;;0.07;0.07;;;4.10;99.90;;;;;;5056751;28;20212;-79
2021/10/25 02:49:54;;;;;;;0.30;0.30;;;4.10;99.90;;;;;;5070569;28;20192;-79
2021/10/25 02:52:19;;;;;;;0.73;0.50;;;4.20;99.90;;;;;;5065251;28;20195;-79
2021/10/25 02:54:45;;;;;;;0.30;0.30;;;4.20;99.90;;;;;;5066419;28;20188;-78
2021/10/25 02:57:11;;;;;;;0.67;0.67;;;4.30;99.90;;;;;;5057061;28;20180;-81
2021/10/25 02:59:37;;;;;;;0.97;0.40;;;4.30;99.90;;;;;;5054404;28;20275;-80
2021/10/25 03:02:03;;;;;;;0.97;0.73;;;4.30;99.90;;;;;;5055617;28;20194;-79
2021/10/25 03:04:28;;;;;;;0.03;0.03;;;4.20;99.90;;;;;;5068948;28;20188;-80
2021/10/25 03:06:54;;;;;;;0.40;0.20;;;4.20;99.90;;;;;;5069638;28;20209;-80
2021/10/25 03:09:19;;;;;;;0.30;0.20;;;4.20;99.90;;;;;;5066245;28;20218;-80
2021/10/25 03:11:45;;;;;;;0.30;0.30;;;4.30;99.90;;;;;;5067011;28;20187;-80
2021/10/25 03:14:11;;;;;;;0.57;0.50;;;4.20;99.90;;;;;;5066484;28;20198;-80
2021/10/25 03:16:37;;;;;;;0.10;0.10;;;4.20;99.90;;;;;;5065207;28;20190;-80
2021/10/25 03:19:03;;;;;;;0.50;0.50;;;4.20;99.90;;;;;;5069323;28;20208;-80
2021/10/25 03:21:28;;;;;;;0.40;0.40;;;4.10;99.90;;;;;;5095634;28;20190;-79
2021/10/25 03:23:54;;;;;;;1.20;0.43;;;4.10;99.90;;;;;;5074703;28;20189;-80
2021/10/25 03:26:20;;;;;;;0.40;0.40;;;4.00;99.90;;;;;;5061202;28;20187;-80
2021/10/25 03:28:46;;;;;;;1.10;0.83;;;4.00;99.90;;;;;;5074033;28;20253;-79
2021/10/25 03:31:12;;;;;;;0.40;0.40;;;3.90;99.90;;;;;;5067121;28;20270;-79
2021/10/25 03:33:38;;;;;;;0.20;0.20;;;3.90;99.90;;;;;;5064744;28;20182;-80
2021/10/25 03:36:06;;;;;;;0.90;0.30;;;3.80;99.90;;;;;;5055272;28;20181;-80
2021/10/25 03:38:33;;;;;;;0.10;0.10;;;3.70;99.90;;;;;;5061875;28;20288;-80
2021/10/25 03:40:59;;;;;;;0.10;0.10;;;3.70;99.90;;;;;;5065002;28;20546;-80
2021/10/25 03:43:30;;;;;;;0.50;0.40;;;3.60;99.90;;;;;;5065803;28;20182;-80
2021/10/25 03:48:45;;;;;;;0.30;0.30;;;3.50;99.90;;;;;;5061621;28;20699;-80
2021/10/25 03:51:13;;;;;;;0.20;0.20;;;3.50;99.90;;;;;;5065953;28;20173;-80
2021/10/25 03:53:46;;;;;;;0.60;0.30;;;3.50;99.90;;;;;;5060796;28;20347;-80
2021/10/25 04:28:17;;;;;;;0.93;0.67;;;3.00;99.90;;;;;;5065713;28;20196;-80
2021/10/25 04:30:43;;;;;;;0.53;0.40;;;3.00;99.90;;;;;;5061718;28;20184;-80
2021/10/25 04:33:09;;;;;;;0.23;0.23;;;3.00;99.90;;;;;;5062508;28;20702;-82
2021/10/25 04:35:34;;;;;;;0.37;0.37;;;3.10;99.90;;;;;;5060543;28;20212;-80
2021/10/25 04:38:00;;;;;;;0.63;0.20;;;3.10;99.90;;;;;;5056308;28;20206;-79
2021/10/25 04:40:26;;;;;;;0.33;0.33;;;3.10;99.90;;;;;;5062813;28;20754;-79
2021/10/25 04:42:52;;;;;;;2.30;0.70;;;3.10;99.90;;;;;;5062108;28;20188;-80
2021/10/25 04:45:19;;;;;;;0.20;0.20;;;3.10;99.90;;;;;;5063009;28;20216;-81
2021/10/25 04:47:45;;;;;;;0.37;0.37;;;3.10;99.90;;;;;;5066370;28;20211;-81
2021/10/25 04:50:11;;;;;;;0.37;0.37;;;3.10;99.90;;;;;;5062855;28;20186;-81
2021/10/25 04:52:37;;;;;;;0.10;0.10;;;3.10;99.90;;;;;;5063511;28;20551;-81
2021/10/25 04:55:03;;;;;;;0.83;0.30;;;3.20;99.90;;;;;;5066971;28;20177;-79
2021/10/25 04:57:29;;;;;;;0.20;0.20;;;3.10;99.90;;;;;;5065857;28;20582;-80
2021/10/25 04:59:54;;;;;;;0.53;0.20;;;3.00;99.90;;;;;;5052090;28;20201;-80
2021/10/25 05:02:21;;;;;;;0.10;0.10;;;2.80;99.90;;;;;;5060653;28;20194;-80
2021/10/25 05:04:46;;;;;;;0.30;0.30;;;2.80;99.90;;;;;;5063242;28;20268;-80
2021/10/25 05:07:12;;;;;;;0.30;0.27;;;2.90;99.90;;;;;;5053322;28;20275;-79
2021/10/25 05:09:38;;;;;;;0.50;0.30;;;3.00;99.90;;;;;;5049772;28;20214;-80
2021/10/25 05:12:04;;;;;;;0.20;0.20;;;3.00;99.90;;;;;;5061158;28;20182;-80
2021/10/25 05:14:30;;;;;;;0.83;0.23;;;3.00;99.90;;;;;;5056447;28;20195;-83
2021/10/25 05:16:55;;;;;;;0.50;0.50;;;3.00;99.90;;;;;;5068028;28;20176;-83
2021/10/25 05:19:21;;;;;;;0.33;0.33;;;3.10;99.90;;;;;;5066024;28;20202;-83
2021/10/25 05:21:47;;;;;;;0.67;0.47;;;3.10;99.90;;;;;;5067383;28;20199;-80
2021/10/25 05:24:12;;;;;;;0.10;0.10;;;3.10;99.90;;;;;;5066597;28;20639;-79
2021/10/25 05:26:38;;;;;;;0.20;0.20;;;3.00;99.90;;;;;;5051997;28;20688;-81
2021/10/25 05:29:03;;;;;;;0.53;0.53;;;3.00;99.90;;;;;;5038017;28;20220;-80
2021/10/25 05:31:29;;;;;;;0.33;0.33;;;3.10;99.90;;;;;;5049580;28;20197;-80
2021/10/25 05:33:57;;;;;;;0.50;0.50;;;3.20;99.90;;;;;;5048297;28;20181;-80
2021/10/25 05:36:22;;;;;;;0.37;0.37;;;3.30;99.90;;;;;;5052112;28;20184;-79
2021/10/25 05:38:48;;;;;;;0.33;0.20;;;3.30;99.90;;;;;;5044517;28;20206;-80
2021/10/25 05:41:14;;;;;;;0.80;0.80;;;3.20;99.90;;;;;;5039377;28;20171;-80
2021/10/25 05:43:42;;;;;;;0.10;0.10;;;3.10;99.90;;;;;;5043690;28;20188;-80
2021/10/25 05:46:07;;;;;;;0.10;0.10;;;3.10;99.90;;;;;;5044364;28;20185;-80
2021/10/25 05:48:33;;;;;;;0.30;0.30;;;3.10;99.90;;;;;;5044785;28;20281;-80
2021/10/25 05:51:02;;;;;;;0.20;0.20;;;3.20;99.90;;;;;;5046829;28;20239;-80
2021/10/25 05:53:28;;;;;;;2.20;0.57;;;3.20;99.90;;;;;;5039772;28;20197;-80
2021/10/25 05:55:54;;;;;;;0.63;0.27;;;3.20;99.90;;;;;;5059480;28;20193;-80
2021/10/25 05:58:23;;;;;;;0.40;0.40;;;3.10;99.90;;;;;;5063252;28;20215;-80
2021/10/25 06:00:54;;;;;;;0.77;0.63;;;3.10;99.90;;;;;;5043699;28;20655;-80
2021/10/25 06:03:25;;;;;;;0.33;0.33;;;3.10;99.90;;;;;;5057756;28;20222;-80
2021/10/25 06:05:51;;;;;;;1.33;0.27;;;3.20;99.90;;;;;;5067607;28;20190;-80
2021/10/25 06:08:18;;;;;;;0.33;0.27;;;3.20;99.90;;;;;;5052700;28;20266;-80
2021/10/25 06:10:44;;;;;;;0.20;0.20;;;3.30;99.90;;;;;;5044411;28;20178;-80
2021/10/25 06:13:16;;;;;;;0.20;0.20;;;3.30;99.90;;;;;;5046107;28;20556;-80
2021/10/25 06:15:42;;;;;;;0.20;0.20;;;3.40;99.90;;;;;;5039451;28;20174;-80
2021/10/25 06:18:09;;;;;;;0.40;0.40;;;3.40;99.90;;;;;;5042533;28;20199;-80
2021/10/25 06:20:38;;;;;;;0.10;0.10;;;3.40;99.90;;;;;;5044776;28;20193;-80
2021/10/25 06:23:08;;;;;;;0.57;0.57;;;3.40;99.90;;;;;;5057604;28;20180;-80
2021/10/25 06:25:34;;;;;;;0.10;0.10;;;3.60;99.90;;;;;;5047268;28;20188;-80
2021/10/25 06:27:59;;;;;;;0.30;0.30;;;3.70;99.90;;;;;;5047136;28;20228;-80
2021/10/25 06:30:25;;;;;;;0.40;0.30;;;3.70;99.90;;;;;;5045436;28;20737;-80
2021/10/25 06:32:51;;;;;;;0.67;0.33;;;3.70;99.90;;;;;;5041874;28;20183;-81
2021/10/25 06:35:22;;;;;;;0.10;0.10;;;3.90;99.90;;;;;;5043052;28;20195;-80
2021/10/25 06:40:24;;;;;;;0.23;0.23;;;4.00;99.90;;;;;;5040818;28;20184;-81
2021/10/25 06:42:50;;;;;;;0.43;0.30;;;4.00;99.90;;;;;;5042384;28;20304;-80
2021/10/25 06:45:19;;;;;;;0.33;0.33;;;4.10;99.90;;;;;;5037355;28;20191;-80
2021/10/25 06:47:45;;;;;;;0.30;0.30;;;4.10;99.90;;;;;;5039848;28;20213;-80
2021/10/25 06:50:12;;;;;;;1.60;0.30;;;4.20;99.90;;;;;;5050653;28;20529;-80
2021/10/25 06:52:37;;;;;;;0.20;0.20;;;4.30;99.90;;;;;;5060692;28;20180;-79
2021/10/25 06:55:04;;;;;;;0.40;0.40;;;4.00;99.90;;;;;;5063466;28;20185;-80
2021/10/25 06:57:30;;;;;;;0.20;0.20;;;4.20;99.90;;;;;;5064119;28;20226;-80
2021/10/25 06:59:56;;;;;;;0.43;0.43;;;4.30;99.90;;;;;;5046444;28;20678;-80
2021/10/25 07:02:22;;;;;;;0.47;0.47;;;4.40;99.90;;;;;;5053023;28;20187;-79
2021/10/25 07:04:48;;;;;;;0.63;0.63;;;4.50;99.90;;;;;;5049103;28;20181;-81
2021/10/25 07:07:16;;;;;;;0.27;0.17;;;4.60;99.90;;;;;;5040494;28;20176;-80
2021/10/25 07:09:42;;;;;;;0.50;0.20;;;4.70;99.90;;;;;;5050098;28;20189;-81
2021/10/25 07:12:08;;;;;;;0.47;0.40;;;4.80;99.90;;;;;;5062235;28;20190;-81
2021/10/25 07:14:36;;;;;;;0.40;0.27;;;4.80;99.90;;;;;;5046053;28;20186;-81
2021/10/25 07:17:30;;;;;;;0.30;0.30;;;4.80;99.90;;;;;;5060958;28;20180;-80
2021/10/25 08:11:06;;;;;;;0.67;0.63;;;5.50;99.90;;;;;;5048249;28;20185;-80
2021/10/25 08:13:40;;;;;;;0.43;0.30;;;5.70;99.90;;;;;;5061379;28;20191;-81
2021/10/25 08:21:13;;;;;;;0.70;0.70;;;6.60;99.90;;;;;;5065659;28;20596;-80
2021/10/25 08:23:39;;;;;;;1.07;0.60;;;6.80;99.90;;;;;;5056339;28;20181;-81
2021/10/25 08:26:06;;;;;;;0.30;0.30;;;6.90;99.90;;;;;;5069612;28;20272;-81
2021/10/25 08:28:32;;;;;;;0.50;0.50;;;7.10;99.90;;;;;;5060631;28;20213;-81
2021/10/25 08:30:59;;;;;;;2.20;1.60;;;7.20;99.90;;;;;;5062643;28;20191;-81
2021/10/25 08:41:24;;;;;;;0.50;0.50;;;7.30;99.90;;;;;;5062542;28;20263;-80
2021/10/25 08:43:52;;;;;;;0.87;0.67;;;7.30;99.90;;;;;;5058234;28;20551;-81
2021/10/25 08:46:20;;;;;;;0.33;0.33;;;7.40;99.90;;;;;;5055255;28;20177;-81
2021/10/25 08:48:46;;;;;;;0.50;0.37;;;7.40;99.90;;;;;;5060601;28;20201;-81
2021/10/25 08:51:13;;;;;;;0.43;0.30;;;7.40;99.90;;;;;;5055433;28;20600;-81
2021/10/25 08:53:39;;;;;;;1.40;0.80;;;7.50;99.90;;;;;;5041831;28;20576;-81
2021/10/25 08:56:05;;;;;;;3.37;1.03;;;7.70;99.90;;;;;;5039426;28;20191;-81
2021/10/25 08:58:35;;;;;;;0.60;0.60;;;7.70;99.90;;;;;;5051075;28;20202;-81
2021/10/25 09:01:01;;;;;;;1.07;0.90;;;7.70;99.90;;;;;;5043842;28;20724;-80
2021/10/25 09:03:26;;;;;;;0.27;0.27;;;7.60;99.90;;;;;;5045106;28;20182;-79
2021/10/25 09:05:58;;;;;;;1.30;0.93;;;7.50;99.90;;;;;;5053291;28;20236;-80
2021/10/25 09:08:25;;;;;;;1.87;0.90;;;7.50;99.90;;;;;;5053245;28;20217;-80
2021/10/25 09:10:51;;;;;;;2.33;1.30;;;7.50;99.90;;;;;;5051512;28;20186;-81
2021/10/25 09:13:20;;;;;;;0.90;0.60;;;7.50;99.90;;;;;;5056174;28;20617;-81
2021/10/25 09:16:00;;;;;;;0.60;0.50;;;7.40;99.90;;;;;;5066729;28;20191;-81
2021/10/25 09:18:31;;;;;;;3.60;1.97;;;7.50;99.90;;;;;;5048366;28;20266;-81
2021/10/25 09:21:05;;;;;;;0.80;0.80;;;7.00;99.90;;;;;;5043503;28;20186;-82
2021/10/25 09:23:40;;;;;;;2.00;1.80;;;6.60;99.90;;;;;;5060576;28;20261;-81
2021/10/25 09:26:13;;;;;;;3.97;2.13;;;6.20;99.90;;;;;;5054044;28;20216;-81
2021/10/25 09:28:44;;;;;;;0.77;0.77;;;5.70;99.90;;;;;;5045684;28;20213;-81
2021/10/25 09:31:19;;;;;;;2.67;1.30;;;5.40;99.90;;;;;;5047452;28;20660;-81
2021/10/25 09:33:57;;;;;;;1.27;0.90;;;5.50;99.90;;;;;;5064104;28;20196;-81
2021/10/25 09:36:34;;;;;;;3.07;2.10;;;5.40;99.90;;;;;;5044678;28;20217;-81
2021/10/25 09:49:01;;;;;;;1.60;0.90;;;6.20;99.90;;;;;;5048809;28;20277;-81
2021/10/25 09:50:24;;;;;;;1.50;1.27;;;6.50;99.90;;;;;;5054981;28;20217;-82
2021/10/25 09:52:49;;;;;;;2.30;2.00;;;6.70;99.90;;;;;;5069786;28;20185;-83
2021/10/25 09:55:18;;;;;;;2.27;2.13;;;6.20;99.90;;;;;;5045574;28;20652;-80
2021/10/25 10:00:13;;;;;;;6.03;1.23;;;5.70;99.90;;;;;;5053840;28;20182;-80
2021/10/25 10:02:40;;;;;;;0.70;0.70;;;5.70;99.90;;;;;;5066143;28;20608;-80
2021/10/25 10:05:08;;;;;;;1.30;1.20;;;5.80;99.90;;;;;;5064567;28;20268;-80
2021/10/25 10:07:34;;;;;;;0.50;0.50;;;6.00;99.90;;;;;;5063597;28;20240;-79
2021/10/25 10:09:59;;;;;;;0.67;0.63;;;6.40;99.90;;;;;;5054438;28;20257;-80
2021/10/25 10:12:27;;;;;;;0.90;0.90;;;6.70;99.90;;;;;;5053075;28;20275;-80
2021/10/25 10:14:56;;;;;;;1.53;1.13;;;6.90;99.90;;;;;;5055724;28;20177;-80
2021/10/25 10:17:41;;;;;;;1.00;1.00;;;6.80;99.90;;;;;;5057260;28;20567;-80
2021/10/25 10:20:11;;;;;;;1.57;1.17;;;7.20;99.90;;;;;;5058357;28;20184;-79
2021/10/25 10:22:42;;;;;;;3.63;1.60;;;7.40;99.90;;;;;;5055771;28;20559;-80
2021/10/25 10:25:09;;;;;;;0.73;0.70;;;7.80;99.90;;;;;;5063116;28;20536;-79
2021/10/25 10:27:35;;;;;;;0.87;0.53;;;7.90;99.90;;;;;;5049084;28;20252;-80
2021/10/25 10:30:06;;;;;;;0.50;0.50;;;7.80;99.90;;;;;;5062804;28;20238;-80
2021/10/25 10:32:33;;;;;;;0.57;0.57;;;7.40;99.90;;;;;;5052497;28;20204;-80
2021/10/25 10:35:04;;;;;;;1.60;0.90;;;7.10;99.90;;;;;;5057992;28;20580;-80
2021/10/25 10:37:32;;;;;;;0.50;0.50;;;7.00;99.90;;;;;;5046684;28;20206;-80
2021/10/25 10:40:17;;;;;;;0.70;0.70;;;6.80;99.90;;;;;;5060543;28;20254;-80
2021/10/25 10:42:50;;;;;;;1.03;0.70;;;6.90;99.90;;;;;;5051063;28;20194;-80
2021/10/25 10:45:18;;;;;;;3.07;1.07;;;7.30;99.90;;;;;;5049301;28;20189;-80
2021/10/25 10:47:56;;;;;;;1.00;0.57;;;7.90;99.90;;;;;;5086531;28;20342;-80
2021/10/25 10:50:42;;;;;;;2.60;0.83;;;8.30;99.90;;;;;;5060998;28;20528;-80
2021/10/25 10:53:15;;;;;;;0.70;0.67;;;8.50;99.90;;;;;;5054091;28;20184;-80
2021/10/25 10:55:43;;;;;;;1.27;1.17;;;8.80;99.90;;;;;;5065933;28;20325;-80
2021/10/25 11:00:39;;;;;;;2.00;1.10;;;9.20;99.90;;;;;;5061446;28;20187;-80
2021/10/25 11:03:25;;;;;;;1.00;0.77;;;9.30;99.90;;;;;;5054209;28;20187;-81
2021/10/25 11:05:59;;;;;;;1.20;1.20;;;9.60;99.90;;;;;;5067773;28;20483;-80
2021/10/25 11:08:33;;;;;;;0.70;0.70;;;9.30;99.90;;;;;;5049390;28;20232;-80
2021/10/25 11:11:06;;;;;;;1.83;1.03;;;8.60;99.90;;;;;;5060187;28;20181;-80
2021/10/25 11:13:40;;;;;;;2.30;1.27;;;8.70;99.90;;;;;;5055052;28;20184;-81
2021/10/25 11:16:16;;;;;;;7.17;1.80;;;8.80;99.90;;;;;;5064703;28;20193;-80
2021/10/25 11:18:45;;;;;;;1.07;1.07;;;8.00;99.90;;;;;;5092634;28;20215;-80
2021/10/25 11:21:25;;;;;;;1.27;0.60;;;8.20;99.90;;;;;;5058308;28;20194;-80
2021/10/25 11:23:54;;;;;;;0.67;0.57;;;8.10;99.90;;;;;;5064587;28;20201;-80
2021/10/25 11:26:23;;;;;;;0.87;0.87;;;8.30;99.90;;;;;;5068087;28;20233;-81
2021/10/25 11:29:12;;;;;;;3.13;1.10;;;8.50;99.90;;;;;;5074199;28;20245;-80
2021/10/25 11:32:09;;;;;;;1.70;1.53;;;8.90;99.90;;;;;;5056638;28;20203;-79
2021/10/25 11:34:39;;;;;;;1.13;1.03;;;9.20;99.90;;;;;;5043919;28;20196;-81
2021/10/25 11:37:20;;;;;;;1.07;1.00;;;9.50;99.90;;;;;;5060200;28;20210;-81
2021/10/25 11:42:29;;;;;;;2.60;0.70;;;10.10;99.90;;;;;;5066973;28;20198;-81
2021/10/25 11:44:57;;;;;;;2.73;1.40;;;10.30;99.90;;;;;;5073879;28;20193;-81
2021/10/25 11:47:36;;;;;;;1.00;0.93;;;10.60;99.90;;;;;;5057148;28;20292;-81
2021/10/25 11:50:06;;;;;;;1.57;0.80;;;10.90;99.90;;;;;;5061796;28;20184;-81
2021/10/25 11:53:00;;;;;;;1.60;1.50;;;11.10;99.90;;;;;;5058430;28;20193;-81
2021/10/25 11:55:35;;;;;;;1.80;1.70;;;11.20;99.90;;;;;;5038742;28;20230;-81
2021/10/25 11:58:03;;;;;;;2.83;1.80;;;11.30;99.90;;;;;;5053329;28;20212;-81
2021/10/25 12:00:31;;;;;;;3.10;1.27;;;11.40;99.90;;;;;;5045096;28;20197;-81
2021/10/25 12:03:05;;;;;;;2.33;1.63;;;11.40;99.90;;;;;;5039448;28;20216;-81
2021/10/25 12:05:31;;;;;;;3.67;3.37;;;11.50;99.90;;;;;;5041128;28;20202;-80
2021/10/25 12:07:57;;;;;;;6.67;2.33;;;11.30;99.90;;;;;;5039843;28;20655;-81
2021/10/25 12:10:26;;;;;;;2.53;2.10;;;10.80;99.90;;;;;;5043481;28;20189;-81
2021/10/25 12:12:54;;;;;;;2.20;1.73;;;11.10;99.90;;;;;;5047538;28;20188;-81
2021/10/25 12:15:23;;;;;;;2.17;1.63;;;11.40;99.90;;;;;;5072936;28;20183;-81
2021/10/25 12:17:49;;;;;;;3.03;1.93;;;11.30;99.90;;;;;;5072380;28;20223;-82
2021/10/25 12:20:27;;;;;;;1.70;1.50;;;11.30;99.90;;;;;;5075573;28;20250;-81
2021/10/25 12:23:01;;;;;;;3.87;3.10;;;11.40;99.90;;;;;;5069423;28;20173;-82
2021/10/25 12:25:29;;;;;;;2.70;1.77;;;11.60;99.90;;;;;;5069316;28;20182;-81
2021/10/25 12:27:59;;;;;;;4.83;3.30;;;11.90;99.90;;;;;;5068385;28;20247;-81
2021/10/25 12:30:27;;;;;;;2.03;1.27;;;12.10;99.90;;;;;;5073660;28;20430;-81
2021/10/25 12:32:58;;;;;;;2.83;1.30;;;12.20;99.90;;;;;;5076033;28;20528;-82
2021/10/25 12:35:38;;;;;;;2.10;1.63;;;12.30;99.90;;;;;;5072718;28;20707;-82
2021/10/25 12:38:09;;;;;;;2.60;2.30;;;12.50;99.90;;;;;;5062141;28;20190;-82
2021/10/25 12:40:40;;;;;;;3.27;2.83;;;12.00;99.90;;;;;;5074858;28;20201;-82
2021/10/25 12:43:07;;;;;;;4.47;1.00;;;12.10;99.90;;;;;;5072047;28;20180;-82
2021/10/25 12:45:44;;;;;;;4.70;2.50;;;12.40;99.90;;;;;;5067634;28;20186;-82
2021/10/25 12:48:11;;;;;;;1.70;1.53;;;12.50;99.90;;;;;;5057967;28;20203;-81
2021/10/25 12:50:39;;;;;;;3.00;1.10;;;12.50;99.90;;;;;;5067848;28;20188;-81
2021/10/25 12:53:07;;;;;;;2.40;2.20;;;12.60;99.90;;;;;;5052839;28;20270;-81
2021/10/25 12:55:35;;;;;;;8.60;2.43;;;12.20;99.90;;;;;;5040032;28;20247;-81
2021/10/25 12:58:00;;;;;;;3.03;2.10;;;12.00;99.90;;;;;;5042760;28;20212;-82
2021/10/25 13:00:28;;;;;;;5.93;2.17;;;12.10;99.90;;;;;;5041509;28;20606;-81
2021/10/25 13:02:55;;;;;;;2.30;1.00;;;12.50;99.90;;;;;;5050918;28;20228;-81
2021/10/25 13:05:37;;;;;;;2.10;1.43;;;12.60;99.90;;;;;;5038616;28;20181;-81
2021/10/25 13:08:05;;;;;;;2.30;1.80;;;12.70;99.90;;;;;;5039732;28;20288;-81
2021/10/25 13:10:34;;;;;;;3.00;2.73;;;12.90;99.90;;;;;;5039385;28;20256;-81
2021/10/25 13:13:02;;;;;;;4.03;2.10;;;12.30;99.90;;;;;;5040580;28;20194;-81
2021/10/25 13:15:29;;;;;;;7.30;2.10;;;12.40;99.90;;;;;;5036949;28;20202;-81
2021/10/25 13:17:56;;;;;;;2.67;2.03;;;12.30;99.90;;;;;;5041287;28;20213;-81
2021/10/25 13:20:24;;;;;;;3.77;2.00;;;12.10;99.90;;;;;;5044901;28;20685;-80
2021/10/25 13:22:52;;;;;;;2.40;1.33;;;12.40;99.90;;;;;;5042166;28;20185;-81
2021/10/25 13:25:20;;;;;;;2.70;1.50;;;12.50;99.90;;;;;;5037977;28;20194;-81
2021/10/25 13:27:46;;;;;;;2.00;1.23;;;12.70;99.90;;;;;;5038075;28;20219;-81
2021/10/25 13:30:16;;;;;;;3.03;2.27;;;12.90;99.90;;;;;;5055348;28;20197;-82
2021/10/25 13:32:42;;;;;;;2.20;2.03;;;12.80;99.90;;;;;;5041340;28;20197;-81
2021/10/25 13:35:09;;;;;;;2.77;1.67;;;12.10;99.90;;;;;;5066876;28;20194;-81
2021/10/25 13:37:35;;;;;;;2.63;1.47;;;12.30;99.90;;;;;;5041861;28;20219;-81
2021/10/25 13:40:01;;;;;;;1.40;1.00;;;12.60;99.90;;;;;;5047025;28;20260;-81
2021/10/25 13:42:27;;;;;;;1.17;1.07;;;12.80;99.90;;;;;;5041997;28;20236;-81
2021/10/25 13:44:53;;;;;;;1.37;1.30;;;13.00;99.90;;;;;;5045337;28;20186;-82
2021/10/25 13:47:19;;;;;;;2.40;1.30;;;13.20;99.90;;;;;;5045349;28;20210;-81
2021/10/25 13:49:45;;;;;;;1.57;1.47;;;13.30;99.90;;;;;;5064101;28;20193;-81
2021/10/25 13:52:11;;;;;;;2.03;1.27;;;13.40;99.90;;;;;;5057009;28;20643;-81
2021/10/25 13:54:38;;;;;;;1.20;1.10;;;13.40;99.90;;;;;;5045716;28;20186;-81
2021/10/25 13:57:08;;;;;;;1.53;1.27;;;13.40;99.90;;;;;;5047334;28;20296;-81
2021/10/25 13:59:35;;;;;;;2.13;1.23;;;13.30;99.90;;;;;;5074827;28;20197;-81
2021/10/25 14:02:04;;;;;;;4.57;1.83;;;13.40;99.90;;;;;;5045040;28;20236;-81
2021/10/25 14:04:30;;;;;;;4.97;3.50;;;13.10;99.90;;;;;;5074217;28;20190;-81
2021/10/25 14:06:56;;;;;;;2.37;0.90;;;12.50;99.90;;;;;;5041808;28;20190;-81
2021/10/25 14:09:21;;;;;;;1.40;1.37;;;12.70;99.90;;;;;;5042582;28;20924;-81
2021/10/25 14:11:51;;;;;;;4.20;1.50;;;12.90;99.90;;;;;;5043149;28;20186;-81
2021/10/25 14:14:18;;;;;;;3.27;1.53;;;12.70;99.90;;;;;;5043944;28;20210;-80
2021/10/25 14:16:52;;;;;;;2.87;1.20;;;12.70;99.90;;;;;;5045647;28;20213;-81
2021/10/25 14:19:20;;;;;;;1.60;1.47;;;12.90;99.90;;;;;;5042665;28;20329;-81
2021/10/25 14:21:46;;;;;;;0.80;0.80;;;13.00;99.90;;;;;;5050821;28;20217;-81
2021/10/25 14:24:12;;;;;;;1.97;1.17;;;12.60;99.90;;;;;;5073954;28;20276;-81
2021/10/25 14:26:39;;;;;;;0.93;0.73;;;12.80;99.90;;;;;;5042116;28;20274;-81
2021/10/25 14:29:05;;;;;;;1.20;1.10;;;13.00;99.90;;;;;;5040339;28;20579;-81
2021/10/25 14:31:32;;;;;;;1.10;1.10;;;13.10;99.90;;;;;;5038719;28;20257;-81
2021/10/25 14:34:03;;;;;;;0.33;0.33;;;13.30;99.90;;;;;;5039335;28;20224;-81
2021/10/25 14:36:30;;;;;;;0.80;0.47;;;13.30;99.90;;;;;;5044194;28;20196;-81
2021/10/25 14:41:56;;;;;;;0.40;0.40;;;12.90;99.90;;;;;;5042698;28;20635;-81
2021/10/25 14:55:11;;;;;;;0.50;0.50;;;13.10;99.90;;;;;;5050681;28;20242;-81
2021/10/25 14:57:37;;;;;;;0.80;0.80;;;13.00;99.90;;;;;;5055597;28;20277;-82
2021/10/25 15:00:04;;;;;;;0.90;0.60;;;13.00;99.90;;;;;;5041577;28;20293;-82
2021/10/25 15:02:30;;;;;;;0.87;0.50;;;13.00;99.90;;;;;;5042952;28;20273;-82
2021/10/25 15:04:56;;;;;;;1.47;0.67;;;12.90;99.90;;;;;;5060455;28;20243;-82
2021/10/25 15:07:22;;;;;;;0.90;0.73;;;13.00;99.90;;;;;;5042234;28;20195;-82
2021/10/25 15:09:53;;;;;;;1.37;0.80;;;12.90;99.90;;;;;;5040580;28;20325;-81
2021/10/25 15:12:26;;;;;;;0.67;0.67;;;12.90;99.90;;;;;;5097549;28;20191;-82